sensor_id;sensor_type;location;lat;lon;timestamp;temperature;humidity
55016;DHT22;40919;43.236;21.590;2023-06-04T00:01:58;460.90;2380.80
55016;DHT22;40919;43.236;21.590;2023-06-04T00:04:25;460.80;2380.80
55016;DHT22;40919;43.236;21.590;2023-06-04T00:06:51;460.80;2380.80
55016;DHT22;40919;43.236;21.590;2023-06-04T00:09:17;460.80;2380.80
55016;DHT22;40919;43.236;21.590;2023-06-04T00:11:43;460.80;2380.80
55016;DHT22;40919;43.236;21.590;2023-06-04T00:14:11;460.90;2380.80
55016;DHT22;40919;43.236;21.590;2023-06-04T00:16:37;460.90;2380.80
55016;DHT22;40919;43.236;21.590;2023-06-04T00:19:03;460.90;2380.80
55016;DHT22;40919;43.236;21.590;2023-06-04T00:21:28;460.90;2380.80
55016;DHT22;40919;43.236;21.590;2023-06-04T00:23:54;460.80;2380.80
55016;DHT22;40919;43.236;21.590;2023-06-04T00:26:20;460.80;2380.80
55016;DHT22;40919;43.236;21.590;2023-06-04T00:28:46;460.80;2380.80
55016;DHT22;40919;43.236;21.590;2023-06-04T00:31:11;460.80;2380.80
55016;DHT22;40919;43.236;21.590;2023-06-04T00:33:39;460.90;2380.80
55016;DHT22;40919;43.236;21.590;2023-06-04T00:36:05;460.80;2380.80
55016;DHT22;40919;43.236;21.590;2023-06-04T00:38:31;460.90;2380.80
55016;DHT22;40919;43.236;21.590;2023-06-04T00:40:57;460.90;2380.80
55016;DHT22;40919;43.236;21.590;2023-06-04T00:43:23;461.40;2380.80
55016;DHT22;40919;43.236;21.590;2023-06-04T00:45:52;460.90;2380.80
55016;DHT22;40919;43.236;21.590;2023-06-04T00:48:18;460.90;2380.80
55016;DHT22;40919;43.236;21.590;2023-06-04T00:50:44;460.90;2380.80
55016;DHT22;40919;43.236;21.590;2023-06-04T00:53:10;460.90;2380.80
55016;DHT22;40919;43.236;21.590;2023-06-04T00:55:36;460.90;2380.80
55016;DHT22;40919;43.236;21.590;2023-06-04T00:58:02;461.00;2278.40
55016;DHT22;40919;43.236;21.590;2023-06-04T01:00:30;461.10;2380.80
55016;DHT22;40919;43.236;21.590;2023-06-04T01:02:58;461.10;2201.60
55016;DHT22;40919;43.236;21.590;2023-06-04T01:05:48;461.10;2022.40
55016;DHT22;40919;43.236;21.590;2023-06-04T01:08:18;461.10;2380.80
55016;DHT22;40919;43.236;21.590;2023-06-04T01:10:54;461.10;2380.80
55016;DHT22;40919;43.236;21.590;2023-06-04T01:13:21;461.10;2227.20
55016;DHT22;40919;43.236;21.590;2023-06-04T01:15:47;461.10;2380.80
55016;DHT22;40919;43.236;21.590;2023-06-04T01:18:15;461.10;2380.80
55016;DHT22;40919;43.236;21.590;2023-06-04T01:21:00;461.10;2150.40
55016;DHT22;40919;43.236;21.590;2023-06-04T01:23:40;461.10;2380.80
55016;DHT22;40919;43.236;21.590;2023-06-04T01:26:12;461.10;2176.00
55016;DHT22;40919;43.236;21.590;2023-06-04T01:28:39;461.10;2380.80
55016;DHT22;40919;43.236;21.590;2023-06-04T01:31:05;461.20;2380.80
55016;DHT22;40919;43.236;21.590;2023-06-04T01:33:34;461.10;2380.80
55016;DHT22;40919;43.236;21.590;2023-06-04T01:36:01;461.20;2022.40
55016;DHT22;40919;43.236;21.590;2023-06-04T01:38:27;461.20;2176.00
55016;DHT22;40919;43.236;21.590;2023-06-04T01:40:53;461.20;2329.60
55016;DHT22;40919;43.236;21.590;2023-06-04T01:43:27;461.10;2380.80
55016;DHT22;40919;43.236;21.590;2023-06-04T01:45:53;461.20;2380.80
55016;DHT22;40919;43.236;21.590;2023-06-04T01:48:19;461.10;2380.80
55016;DHT22;40919;43.236;21.590;2023-06-04T01:50:45;461.10;2380.80
55016;DHT22;40919;43.236;21.590;2023-06-04T01:53:11;461.10;2380.80
55016;DHT22;40919;43.236;21.590;2023-06-04T01:55:37;461.10;2380.80
55016;DHT22;40919;43.236;21.590;2023-06-04T01:58:03;461.10;2380.80
55016;DHT22;40919;43.236;21.590;2023-06-04T02:00:29;461.10;2380.80
55016;DHT22;40919;43.236;21.590;2023-06-04T02:02:55;461.10;2380.80
55016;DHT22;40919;43.236;21.590;2023-06-04T02:05:21;461.10;2380.80
55016;DHT22;40919;43.236;21.590;2023-06-04T02:07:47;461.10;2380.80
55016;DHT22;40919;43.236;21.590;2023-06-04T02:10:17;461.10;2073.60
55016;DHT22;40919;43.236;21.590;2023-06-04T02:13:02;461.10;2380.80
55016;DHT22;40919;43.236;21.590;2023-06-04T02:15:30;461.10;2380.80
55016;DHT22;40919;43.236;21.590;2023-06-04T02:18:11;461.10;2176.00
55016;DHT22;40919;43.236;21.590;2023-06-04T02:20:42;461.10;2380.80
55016;DHT22;40919;43.236;21.590;2023-06-04T02:23:08;461.10;2380.80
55016;DHT22;40919;43.236;21.590;2023-06-04T02:25:34;461.10;2380.80
55016;DHT22;40919;43.236;21.590;2023-06-04T02:28:00;461.10;2380.80
55016;DHT22;40919;43.236;21.590;2023-06-04T02:30:26;461.00;2380.80
55016;DHT22;40919;43.236;21.590;2023-06-04T02:32:52;461.10;2380.80
55016;DHT22;40919;43.236;21.590;2023-06-04T02:35:20;461.00;2380.80
55016;DHT22;40919;43.236;21.590;2023-06-04T02:37:49;461.10;2380.80
55016;DHT22;40919;43.236;21.590;2023-06-04T02:40:15;461.10;2380.80
55016;DHT22;40919;43.236;21.590;2023-06-04T02:42:41;461.10;2380.80
55016;DHT22;40919;43.236;21.590;2023-06-04T02:45:07;461.10;2380.80
55016;DHT22;40919;43.236;21.590;2023-06-04T02:47:33;461.30;2380.80
55016;DHT22;40919;43.236;21.590;2023-06-04T02:49:58;461.10;2380.80
55016;DHT22;40919;43.236;21.590;2023-06-04T02:52:24;461.10;2380.80
55016;DHT22;40919;43.236;21.590;2023-06-04T02:54:51;461.20;2380.80
55016;DHT22;40919;43.236;21.590;2023-06-04T02:57:17;461.20;2380.80
55016;DHT22;40919;43.236;21.590;2023-06-04T02:59:42;461.10;2380.80
55016;DHT22;40919;43.236;21.590;2023-06-04T03:02:08;461.20;2380.80
55016;DHT22;40919;43.236;21.590;2023-06-04T03:04:35;461.10;2380.80
55016;DHT22;40919;43.236;21.590;2023-06-04T03:07:04;461.10;2380.80
55016;DHT22;40919;43.236;21.590;2023-06-04T03:09:30;461.20;2380.80
55016;DHT22;40919;43.236;21.590;2023-06-04T03:12:00;461.20;2380.80
55016;DHT22;40919;43.236;21.590;2023-06-04T03:14:27;461.20;2380.80
55016;DHT22;40919;43.236;21.590;2023-06-04T03:17:00;461.30;2380.80
55016;DHT22;40919;43.236;21.590;2023-06-04T03:19:40;461.20;2380.80
55016;DHT22;40919;43.236;21.590;2023-06-04T03:22:08;461.20;2380.80
55016;DHT22;40919;43.236;21.590;2023-06-04T03:24:35;461.20;2380.80
55016;DHT22;40919;43.236;21.590;2023-06-04T03:27:02;461.30;2380.80
55016;DHT22;40919;43.236;21.590;2023-06-04T03:29:29;461.30;2380.80
55016;DHT22;40919;43.236;21.590;2023-06-04T03:31:56;461.30;2380.80
55016;DHT22;40919;43.236;21.590;2023-06-04T03:34:22;461.30;2073.60
55016;DHT22;40919;43.236;21.590;2023-06-04T03:36:54;461.30;2380.80
55016;DHT22;40919;43.236;21.590;2023-06-04T03:39:20;461.30;2380.80
55016;DHT22;40919;43.236;21.590;2023-06-04T03:41:47;461.40;2380.80
55016;DHT22;40919;43.236;21.590;2023-06-04T03:44:17;461.30;2380.80
55016;DHT22;40919;43.236;21.590;2023-06-04T03:46:44;461.30;2380.80
55016;DHT22;40919;43.236;21.590;2023-06-04T03:49:10;461.30;2380.80
55016;DHT22;40919;43.236;21.590;2023-06-04T03:51:37;461.20;2380.80
55016;DHT22;40919;43.236;21.590;2023-06-04T03:54:03;461.20;2380.80
55016;DHT22;40919;43.236;21.590;2023-06-04T03:56:29;461.20;2380.80
55016;DHT22;40919;43.236;21.590;2023-06-04T03:58:56;461.20;2380.80
55016;DHT22;40919;43.236;21.590;2023-06-04T04:01:22;461.30;2380.80
55016;DHT22;40919;43.236;21.590;2023-06-04T04:03:49;461.20;2380.80
55016;DHT22;40919;43.236;21.590;2023-06-04T04:06:17;461.10;2380.80
55016;DHT22;40919;43.236;21.590;2023-06-04T04:08:43;461.70;2380.80
55016;DHT22;40919;43.236;21.590;2023-06-04T04:11:13;461.30;2380.80
55016;DHT22;40919;43.236;21.590;2023-06-04T04:13:39;461.40;2380.80
55016;DHT22;40919;43.236;21.590;2023-06-04T04:16:05;461.40;2380.80
55016;DHT22;40919;43.236;21.590;2023-06-04T04:18:35;461.40;2380.80
55016;DHT22;40919;43.236;21.590;2023-06-04T04:21:03;461.40;2380.80
55016;DHT22;40919;43.236;21.590;2023-06-04T04:23:30;461.40;2380.80
55016;DHT22;40919;43.236;21.590;2023-06-04T04:25:58;461.30;2380.80
55016;DHT22;40919;43.236;21.590;2023-06-04T04:28:27;461.40;2355.20
55016;DHT22;40919;43.236;21.590;2023-06-04T04:30:57;461.30;2380.80
55016;DHT22;40919;43.236;21.590;2023-06-04T04:33:23;461.20;2380.80
55016;DHT22;40919;43.236;21.590;2023-06-04T04:35:52;461.20;2099.20
55016;DHT22;40919;43.236;21.590;2023-06-04T04:38:21;461.20;2380.80
55016;DHT22;40919;43.236;21.590;2023-06-04T04:40:49;461.20;2380.80
55016;DHT22;40919;43.236;21.590;2023-06-04T04:43:29;461.20;2380.80
55016;DHT22;40919;43.236;21.590;2023-06-04T04:45:54;461.30;2380.80
55016;DHT22;40919;43.236;21.590;2023-06-04T04:48:20;461.30;2380.80
55016;DHT22;40919;43.236;21.590;2023-06-04T04:50:46;461.30;2380.80
55016;DHT22;40919;43.236;21.590;2023-06-04T04:53:12;461.30;2380.80
55016;DHT22;40919;43.236;21.590;2023-06-04T04:55:37;461.40;2380.80
55016;DHT22;40919;43.236;21.590;2023-06-04T04:58:03;461.40;2380.80
55016;DHT22;40919;43.236;21.590;2023-06-04T05:00:29;461.40;2380.80
55016;DHT22;40919;43.236;21.590;2023-06-04T05:02:55;461.40;2380.80
55016;DHT22;40919;43.236;21.590;2023-06-04T05:05:21;461.40;2380.80
55016;DHT22;40919;43.236;21.590;2023-06-04T05:07:47;461.40;2380.80
55016;DHT22;40919;43.236;21.590;2023-06-04T05:10:13;461.40;2380.80
55016;DHT22;40919;43.236;21.590;2023-06-04T05:12:39;461.40;2380.80
55016;DHT22;40919;43.236;21.590;2023-06-04T05:15:06;461.30;2380.80
55016;DHT22;40919;43.236;21.590;2023-06-04T05:17:32;461.40;2380.80
55016;DHT22;40919;43.236;21.590;2023-06-04T05:19:57;461.40;2380.80
55016;DHT22;40919;43.236;21.590;2023-06-04T05:22:37;461.40;2380.80
55016;DHT22;40919;43.236;21.590;2023-06-04T05:25:03;461.40;2380.80
55016;DHT22;40919;43.236;21.590;2023-06-04T05:27:29;461.30;2380.80
55016;DHT22;40919;43.236;21.590;2023-06-04T05:29:57;461.30;2380.80
55016;DHT22;40919;43.236;21.590;2023-06-04T05:32:23;461.20;2380.80
55016;DHT22;40919;43.236;21.590;2023-06-04T05:34:49;461.20;2380.80
55016;DHT22;40919;43.236;21.590;2023-06-04T05:37:15;461.20;2380.80
55016;DHT22;40919;43.236;21.590;2023-06-04T05:39:44;461.30;2380.80
55016;DHT22;40919;43.236;21.590;2023-06-04T05:42:09;461.20;2380.80
55016;DHT22;40919;43.236;21.590;2023-06-04T05:44:36;461.20;2380.80
55016;DHT22;40919;43.236;21.590;2023-06-04T05:47:01;461.20;2380.80
55016;DHT22;40919;43.236;21.590;2023-06-04T05:49:27;461.10;2380.80
55016;DHT22;40919;43.236;21.590;2023-06-04T05:51:53;461.00;2380.80
55016;DHT22;40919;43.236;21.590;2023-06-04T05:54:19;461.10;2380.80
55016;DHT22;40919;43.236;21.590;2023-06-04T05:56:45;461.10;2380.80
55016;DHT22;40919;43.236;21.590;2023-06-04T05:59:10;461.10;2380.80
55016;DHT22;40919;43.236;21.590;2023-06-04T06:01:36;461.10;2380.80
55016;DHT22;40919;43.236;21.590;2023-06-04T06:04:03;461.10;2380.80
55016;DHT22;40919;43.236;21.590;2023-06-04T06:06:29;461.10;2380.80
55016;DHT22;40919;43.236;21.590;2023-06-04T06:08:55;461.10;2380.80
55016;DHT22;40919;43.236;21.590;2023-06-04T06:11:20;461.00;2380.80
55016;DHT22;40919;43.236;21.590;2023-06-04T06:13:47;461.10;2380.80
55016;DHT22;40919;43.236;21.590;2023-06-04T06:16:13;460.90;2380.80
55016;DHT22;40919;43.236;21.590;2023-06-04T06:18:38;461.10;2380.80
55016;DHT22;40919;43.236;21.590;2023-06-04T06:21:04;461.10;2380.80
55016;DHT22;40919;43.236;21.590;2023-06-04T06:23:30;461.10;2380.80
55016;DHT22;40919;43.236;21.590;2023-06-04T06:25:56;461.00;2380.80
55016;DHT22;40919;43.236;21.590;2023-06-04T06:28:22;460.90;2380.80
55016;DHT22;40919;43.236;21.590;2023-06-04T06:30:48;460.80;2380.80
55016;DHT22;40919;43.236;21.590;2023-06-04T06:33:14;460.80;2380.80
55016;DHT22;40919;43.236;21.590;2023-06-04T06:35:40;460.90;2380.80
55016;DHT22;40919;43.236;21.590;2023-06-04T06:38:05;460.80;2380.80
55016;DHT22;40919;43.236;21.590;2023-06-04T06:40:31;436.10;2355.20
55016;DHT22;40919;43.236;21.590;2023-06-04T06:42:57;436.10;2355.20
55016;DHT22;40919;43.236;21.590;2023-06-04T06:45:23;436.10;2355.20
55016;DHT22;40919;43.236;21.590;2023-06-04T06:47:49;435.90;2355.20
55016;DHT22;40919;43.236;21.590;2023-06-04T06:50:15;435.80;2355.20
55016;DHT22;40919;43.236;21.590;2023-06-04T06:57:33;435.90;2355.20
55016;DHT22;40919;43.236;21.590;2023-06-04T06:59:59;435.70;2355.20
55016;DHT22;40919;43.236;21.590;2023-06-04T07:02:25;435.80;2355.20
55016;DHT22;40919;43.236;21.590;2023-06-04T07:04:51;435.80;2355.20
55016;DHT22;40919;43.236;21.590;2023-06-04T07:07:16;435.90;2355.20
55016;DHT22;40919;43.236;21.590;2023-06-04T07:09:42;435.80;2355.20
55016;DHT22;40919;43.236;21.590;2023-06-04T07:12:08;435.70;2355.20
55016;DHT22;40919;43.236;21.590;2023-06-04T07:14:34;435.70;2355.20
55016;DHT22;40919;43.236;21.590;2023-06-04T07:17:00;435.80;2355.20
55016;DHT22;40919;43.236;21.590;2023-06-04T07:19:26;435.80;2355.20
55016;DHT22;40919;43.236;21.590;2023-06-04T07:21:54;435.80;2355.20
55016;DHT22;40919;43.236;21.590;2023-06-04T07:24:20;435.80;2150.40
55016;DHT22;40919;43.236;21.590;2023-06-04T07:26:47;436.00;2355.20
55016;DHT22;40919;43.236;21.590;2023-06-04T07:29:13;435.90;2355.20
55016;DHT22;40919;43.236;21.590;2023-06-04T07:31:40;435.80;2355.20
55016;DHT22;40919;43.236;21.590;2023-06-04T07:34:06;435.80;2355.20
55016;DHT22;40919;43.236;21.590;2023-06-04T07:36:32;435.80;1971.20
55016;DHT22;40919;43.236;21.590;2023-06-04T07:38:58;435.60;2355.20
55016;DHT22;40919;43.236;21.590;2023-06-04T07:41:24;435.60;2355.20
55016;DHT22;40919;43.236;21.590;2023-06-04T07:43:51;435.60;2355.20
55016;DHT22;40919;43.236;21.590;2023-06-04T07:46:17;435.60;2355.20
55016;DHT22;40919;43.236;21.590;2023-06-04T07:48:46;435.60;2355.20
55016;DHT22;40919;43.236;21.590;2023-06-04T07:51:13;435.70;2355.20
55016;DHT22;40919;43.236;21.590;2023-06-04T07:53:39;435.60;2355.20
55016;DHT22;40919;43.236;21.590;2023-06-04T07:56:06;435.60;2355.20
55016;DHT22;40919;43.236;21.590;2023-06-04T07:58:32;435.70;2355.20
55016;DHT22;40919;43.236;21.590;2023-06-04T08:00:58;435.80;2355.20
55016;DHT22;40919;43.236;21.590;2023-06-04T08:03:23;435.90;2355.20
55016;DHT22;40919;43.236;21.590;2023-06-04T08:05:50;436.00;2355.20
55016;DHT22;40919;43.236;21.590;2023-06-04T08:08:16;436.10;2355.20
55016;DHT22;40919;43.236;21.590;2023-06-04T08:10:42;436.10;2355.20
55016;DHT22;40919;43.236;21.590;2023-06-04T08:13:07;436.10;2355.20
55016;DHT22;40919;43.236;21.590;2023-06-04T08:15:35;436.10;2355.20
55016;DHT22;40919;43.236;21.590;2023-06-04T08:18:01;460.80;2380.80
55016;DHT22;40919;43.236;21.590;2023-06-04T08:20:26;460.80;2380.80
55016;DHT22;40919;43.236;21.590;2023-06-04T08:22:52;436.10;2355.20
55016;DHT22;40919;43.236;21.590;2023-06-04T08:25:18;436.10;2355.20
55016;DHT22;40919;43.236;21.590;2023-06-04T08:27:44;436.10;2355.20
55016;DHT22;40919;43.236;21.590;2023-06-04T08:30:10;436.10;2355.20
55016;DHT22;40919;43.236;21.590;2023-06-04T08:32:36;436.00;2355.20
55016;DHT22;40919;43.236;21.590;2023-06-04T08:35:01;436.10;2355.20
55016;DHT22;40919;43.236;21.590;2023-06-04T08:37:28;436.00;2355.20
55016;DHT22;40919;43.236;21.590;2023-06-04T08:39:54;436.00;2355.20
55016;DHT22;40919;43.236;21.590;2023-06-04T08:42:29;436.00;2355.20
55016;DHT22;40919;43.236;21.590;2023-06-04T08:44:59;435.90;2355.20
55016;DHT22;40919;43.236;21.590;2023-06-04T08:47:26;435.80;2355.20
55016;DHT22;40919;43.236;21.590;2023-06-04T08:49:59;435.80;2355.20
55016;DHT22;40919;43.236;21.590;2023-06-04T08:52:26;435.80;2355.20
55016;DHT22;40919;43.236;21.590;2023-06-04T08:54:53;435.70;2355.20
55016;DHT22;40919;43.236;21.590;2023-06-04T08:57:19;435.80;2355.20
55016;DHT22;40919;43.236;21.590;2023-06-04T08:59:48;435.80;2355.20
55016;DHT22;40919;43.236;21.590;2023-06-04T09:02:15;435.90;2355.20
55016;DHT22;40919;43.236;21.590;2023-06-04T09:04:43;435.70;2355.20
55016;DHT22;40919;43.236;21.590;2023-06-04T09:07:10;435.70;2355.20
55016;DHT22;40919;43.236;21.590;2023-06-04T09:09:39;435.60;2355.20
55016;DHT22;40919;43.236;21.590;2023-06-04T09:12:09;435.40;2355.20
55016;DHT22;40919;43.236;21.590;2023-06-04T09:14:36;435.30;2022.40
55016;DHT22;40919;43.236;21.590;2023-06-04T09:17:02;435.30;2355.20
55016;DHT22;40919;43.236;21.590;2023-06-04T09:19:28;435.30;2329.60
55016;DHT22;40919;43.236;21.590;2023-06-04T09:21:56;435.30;2355.20
55016;DHT22;40919;43.236;21.590;2023-06-04T09:24:25;435.20;2355.20
55016;DHT22;40919;43.236;21.590;2023-06-04T09:26:52;435.30;2355.20
55016;DHT22;40919;43.236;21.590;2023-06-04T09:29:18;435.30;2355.20
55016;DHT22;40919;43.236;21.590;2023-06-04T09:31:56;435.30;2355.20
55016;DHT22;40919;43.236;21.590;2023-06-04T09:34:28;435.40;2355.20
55016;DHT22;40919;43.236;21.590;2023-06-04T09:36:55;435.60;2355.20
55016;DHT22;40919;43.236;21.590;2023-06-04T09:39:22;435.60;2355.20
55016;DHT22;40919;43.236;21.590;2023-06-04T09:42:01;435.50;2355.20
55016;DHT22;40919;43.236;21.590;2023-06-04T09:44:31;435.60;2329.60
55016;DHT22;40919;43.236;21.590;2023-06-04T09:46:57;435.90;2355.20
55016;DHT22;40919;43.236;21.590;2023-06-04T09:49:23;435.80;2355.20
55016;DHT22;40919;43.236;21.590;2023-06-04T09:51:50;435.60;1971.20
55016;DHT22;40919;43.236;21.590;2023-06-04T09:54:16;435.50;2355.20
55016;DHT22;40919;43.236;21.590;2023-06-04T09:56:42;435.50;2355.20
55016;DHT22;40919;43.236;21.590;2023-06-04T09:59:09;435.50;2355.20
55016;DHT22;40919;43.236;21.590;2023-06-04T10:01:39;435.30;2355.20
55016;DHT22;40919;43.236;21.590;2023-06-04T10:04:08;435.50;2022.40
55016;DHT22;40919;43.236;21.590;2023-06-04T10:06:36;435.60;2329.60
55016;DHT22;40919;43.236;21.590;2023-06-04T10:09:06;435.70;2355.20
55016;DHT22;40919;43.236;21.590;2023-06-04T10:11:46;435.50;2355.20
55016;DHT22;40919;43.236;21.590;2023-06-04T10:14:22;435.60;2355.20
55016;DHT22;40919;43.236;21.590;2023-06-04T10:16:51;435.60;2355.20
55016;DHT22;40919;43.236;21.590;2023-06-04T10:19:18;435.60;2355.20
55016;DHT22;40919;43.236;21.590;2023-06-04T10:21:44;435.30;2355.20
55016;DHT22;40919;43.236;21.590;2023-06-04T10:24:12;435.50;2355.20
55016;DHT22;40919;43.236;21.590;2023-06-04T10:26:39;435.60;2355.20
55016;DHT22;40919;43.236;21.590;2023-06-04T10:29:06;435.60;2355.20
55016;DHT22;40919;43.236;21.590;2023-06-04T10:31:32;435.60;2355.20
55016;DHT22;40919;43.236;21.590;2023-06-04T10:33:58;435.90;2355.20
55016;DHT22;40919;43.236;21.590;2023-06-04T10:36:24;435.80;2355.20
55016;DHT22;40919;43.236;21.590;2023-06-04T10:38:55;435.90;2355.20
55016;DHT22;40919;43.236;21.590;2023-06-04T10:41:22;436.00;2355.20
55016;DHT22;40919;43.236;21.590;2023-06-04T10:43:59;436.00;2355.20
55016;DHT22;40919;43.236;21.590;2023-06-04T10:46:25;436.00;2355.20
55016;DHT22;40919;43.236;21.590;2023-06-04T10:48:52;436.10;2355.20
55016;DHT22;40919;43.236;21.590;2023-06-04T10:51:32;436.10;2355.20
55016;DHT22;40919;43.236;21.590;2023-06-04T10:54:01;436.10;2355.20
55016;DHT22;40919;43.236;21.590;2023-06-04T10:56:27;460.80;2380.80
55016;DHT22;40919;43.236;21.590;2023-06-04T10:58:53;436.10;2355.20
55016;DHT22;40919;43.236;21.590;2023-06-04T11:01:29;436.00;2355.20
55016;DHT22;40919;43.236;21.590;2023-06-04T11:03:56;436.10;2355.20
55016;DHT22;40919;43.236;21.590;2023-06-04T11:06:22;436.00;2355.20
55016;DHT22;40919;43.236;21.590;2023-06-04T11:08:48;436.10;2355.20
55016;DHT22;40919;43.236;21.590;2023-06-04T11:11:15;436.10;2355.20
55016;DHT22;40919;43.236;21.590;2023-06-04T11:13:42;460.80;2380.80
55016;DHT22;40919;43.236;21.590;2023-06-04T11:16:18;460.80;2380.80
55016;DHT22;40919;43.236;21.590;2023-06-04T11:19:05;460.80;2380.80
55016;DHT22;40919;43.236;21.590;2023-06-04T11:21:34;460.80;2380.80
55016;DHT22;40919;43.236;21.590;2023-06-04T11:24:00;460.80;2380.80
55016;DHT22;40919;43.236;21.590;2023-06-04T11:26:34;461.00;2380.80
55016;DHT22;40919;43.236;21.590;2023-06-04T11:29:00;461.20;2380.80
55016;DHT22;40919;43.236;21.590;2023-06-04T11:31:27;461.00;2380.80
55016;DHT22;40919;43.236;21.590;2023-06-04T11:33:52;460.80;2380.80
55016;DHT22;40919;43.236;21.590;2023-06-04T11:39:00;461.10;2380.80
55016;DHT22;40919;43.236;21.590;2023-06-04T11:41:30;461.20;2380.80
55016;DHT22;40919;43.236;21.590;2023-06-04T11:44:01;461.20;2380.80
55016;DHT22;40919;43.236;21.590;2023-06-04T11:46:28;461.20;2380.80
55016;DHT22;40919;43.236;21.590;2023-06-04T11:48:54;461.30;2380.80
55016;DHT22;40919;43.236;21.590;2023-06-04T11:51:20;461.40;2380.80
55016;DHT22;40919;43.236;21.590;2023-06-04T11:53:47;461.50;2380.80
55016;DHT22;40919;43.236;21.590;2023-06-04T11:56:14;461.60;2380.80
55016;DHT22;40919;43.236;21.590;2023-06-04T11:58:40;461.70;2380.80
55016;DHT22;40919;43.236;21.590;2023-06-04T12:01:07;461.70;2380.80
55016;DHT22;40919;43.236;21.590;2023-06-04T12:03:35;461.70;2380.80
55016;DHT22;40919;43.236;21.590;2023-06-04T12:06:16;486.40;2380.80
55016;DHT22;40919;43.236;21.590;2023-06-04T12:08:53;486.50;2380.80
55016;DHT22;40919;43.236;21.590;2023-06-04T12:11:33;486.80;2380.80
55016;DHT22;40919;43.236;21.590;2023-06-04T12:14:16;487.00;2380.80
55016;DHT22;40919;43.236;21.590;2023-06-04T12:16:42;487.10;2380.80
55016;DHT22;40919;43.236;21.590;2023-06-04T12:19:09;487.10;2380.80
55016;DHT22;40919;43.236;21.590;2023-06-04T12:21:35;512.00;2380.80
55016;DHT22;40919;43.236;21.590;2023-06-04T12:24:12;512.00;2380.80
55016;DHT22;40919;43.236;21.590;2023-06-04T12:26:40;512.10;2380.80
55016;DHT22;40919;43.236;21.590;2023-06-04T12:29:11;512.10;2380.80
55016;DHT22;40919;43.236;21.590;2023-06-04T12:31:46;512.10;2380.80
55016;DHT22;40919;43.236;21.590;2023-06-04T12:34:15;512.20;2380.80
55016;DHT22;40919;43.236;21.590;2023-06-04T12:36:43;512.40;2380.80
55016;DHT22;40919;43.236;21.590;2023-06-04T12:39:08;512.40;2380.80
55016;DHT22;40919;43.236;21.590;2023-06-04T12:41:35;512.50;2380.80
55016;DHT22;40919;43.236;21.590;2023-06-04T12:44:01;512.60;2380.80
55016;DHT22;40919;43.236;21.590;2023-06-04T12:46:27;512.70;2380.80
55016;DHT22;40919;43.236;21.590;2023-06-04T12:48:54;512.80;2380.80
55016;DHT22;40919;43.236;21.590;2023-06-04T12:51:20;512.80;2380.80
55016;DHT22;40919;43.236;21.590;2023-06-04T12:53:47;512.80;2380.80
55016;DHT22;40919;43.236;21.590;2023-06-04T12:56:13;512.90;2380.80
55016;DHT22;40919;43.236;21.590;2023-06-04T12:58:39;512.90;2380.80
55016;DHT22;40919;43.236;21.590;2023-06-04T13:01:05;537.60;2406.40
55016;DHT22;40919;43.236;21.590;2023-06-04T13:03:36;512.80;2380.80
55016;DHT22;40919;43.236;21.590;2023-06-04T13:06:02;537.70;2406.40
55016;DHT22;40919;43.236;21.590;2023-06-04T13:08:28;537.80;2406.40
55016;DHT22;40919;43.236;21.590;2023-06-04T13:23:08;538.20;2406.40
55016;DHT22;40919;43.236;21.590;2023-06-04T13:25:35;538.10;2406.40
55016;DHT22;40919;43.236;21.590;2023-06-04T13:28:02;538.10;2406.40
55016;DHT22;40919;43.236;21.590;2023-06-04T13:30:28;538.20;2406.40
55016;DHT22;40919;43.236;21.590;2023-06-04T13:32:54;538.00;2406.40
55016;DHT22;40919;43.236;21.590;2023-06-04T13:35:20;537.70;2406.40
55016;DHT22;40919;43.236;21.590;2023-06-04T13:37:46;537.90;2406.40
55016;DHT22;40919;43.236;21.590;2023-06-04T13:40:13;537.90;2406.40
55016;DHT22;40919;43.236;21.590;2023-06-04T13:42:39;537.80;2406.40
55016;DHT22;40919;43.236;21.590;2023-06-04T13:45:06;537.80;2406.40
55016;DHT22;40919;43.236;21.590;2023-06-04T13:47:31;537.80;2406.40
55016;DHT22;40919;43.236;21.590;2023-06-04T13:49:58;537.80;2406.40
55016;DHT22;40919;43.236;21.590;2023-06-04T13:52:24;537.80;2406.40
55016;DHT22;40919;43.236;21.590;2023-06-04T13:54:49;537.90;2406.40
55016;DHT22;40919;43.236;21.590;2023-06-04T13:57:16;538.00;2406.40
55016;DHT22;40919;43.236;21.590;2023-06-04T13:59:42;538.00;2406.40
55016;DHT22;40919;43.236;21.590;2023-06-04T14:02:08;538.00;2406.40
55016;DHT22;40919;43.236;21.590;2023-06-04T14:04:34;538.00;2406.40
55016;DHT22;40919;43.236;21.590;2023-06-04T14:06:59;538.20;2406.40
55016;DHT22;40919;43.236;21.590;2023-06-04T14:09:25;538.40;2406.40
55016;DHT22;40919;43.236;21.590;2023-06-04T14:11:51;538.40;2406.40
55016;DHT22;40919;43.236;21.590;2023-06-04T14:14:17;538.30;2406.40
55016;DHT22;40919;43.236;21.590;2023-06-04T14:16:44;538.20;2406.40
55016;DHT22;40919;43.236;21.590;2023-06-04T14:19:10;538.20;2406.40
55016;DHT22;40919;43.236;21.590;2023-06-04T14:21:36;563.20;2432.00
55016;DHT22;40919;43.236;21.590;2023-06-04T14:24:02;563.90;2432.00
55016;DHT22;40919;43.236;21.590;2023-06-04T14:26:28;564.10;2432.00
55016;DHT22;40919;43.236;21.590;2023-06-04T14:28:55;563.90;2432.00
55016;DHT22;40919;43.236;21.590;2023-06-04T14:31:21;563.90;2432.00
55016;DHT22;40919;43.236;21.590;2023-06-04T14:33:47;563.80;2432.00
55016;DHT22;40919;43.236;21.590;2023-06-04T14:36:13;563.60;2432.00
55016;DHT22;40919;43.236;21.590;2023-06-04T14:38:39;563.50;2432.00
55016;DHT22;40919;43.236;21.590;2023-06-04T14:41:05;563.40;2432.00
55016;DHT22;40919;43.236;21.590;2023-06-04T14:43:30;563.30;2432.00
55016;DHT22;40919;43.236;21.590;2023-06-04T14:45:56;563.20;2432.00
55016;DHT22;40919;43.236;21.590;2023-06-04T14:48:22;538.40;2406.40
55016;DHT22;40919;43.236;21.590;2023-06-04T14:50:48;538.40;2406.40
55016;DHT22;40919;43.236;21.590;2023-06-04T14:53:15;538.30;2406.40
55016;DHT22;40919;43.236;21.590;2023-06-04T14:55:41;538.30;2406.40
55016;DHT22;40919;43.236;21.590;2023-06-04T14:58:07;538.20;2406.40